sensor_id;sensor_type;location;lat;lon;timestamp;P1;durP1;ratioP1;P2;durP2;ratioP2
63286;SDS011;49410;55.708;37.522;2022-11-20T00:01:39;15.40;;;6.78;;
63286;SDS011;49410;55.708;37.522;2022-11-20T00:04:05;14.23;;;5.88;;
63286;SDS011;49410;55.708;37.522;2022-11-20T00:06:31;15.48;;;6.07;;
63286;SDS011;49410;55.708;37.522;2022-11-20T00:08:58;14.35;;;6.13;;
63286;SDS011;49410;55.708;37.522;2022-11-20T00:11:26;18.08;;;6.35;;
63286;SDS011;49410;55.708;37.522;2022-11-20T00:13:54;23.85;;;7.15;;
63286;SDS011;49410;55.708;37.522;2022-11-20T00:16:22;16.17;;;6.63;;
63286;SDS011;49410;55.708;37.522;2022-11-20T00:18:50;13.45;;;6.28;;
63286;SDS011;49410;55.708;37.522;2022-11-20T00:21:25;18.98;;;7.13;;
63286;SDS011;49410;55.708;37.522;2022-11-20T00:23:53;17.88;;;6.93;;
63286;SDS011;49410;55.708;37.522;2022-11-20T00:26:21;15.20;;;6.63;;
63286;SDS011;49410;55.708;37.522;2022-11-20T00:28:51;14.25;;;6.03;;
63286;SDS011;49410;55.708;37.522;2022-11-20T00:31:18;16.23;;;6.35;;
63286;SDS011;49410;55.708;37.522;2022-11-20T00:33:45;15.50;;;7.28;;
63286;SDS011;49410;55.708;37.522;2022-11-20T00:36:15;16.40;;;6.60;;
63286;SDS011;49410;55.708;37.522;2022-11-20T00:38:42;15.50;;;6.47;;
63286;SDS011;49410;55.708;37.522;2022-11-20T00:41:09;12.75;;;5.50;;
63286;SDS011;49410;55.708;37.522;2022-11-20T00:43:36;12.85;;;5.57;;
63286;SDS011;49410;55.708;37.522;2022-11-20T00:46:10;16.35;;;6.25;;
63286;SDS011;49410;55.708;37.522;2022-11-20T00:48:35;16.98;;;6.40;;
63286;SDS011;49410;55.708;37.522;2022-11-20T00:51:01;15.85;;;5.72;;
63286;SDS011;49410;55.708;37.522;2022-11-20T00:53:27;14.63;;;6.45;;
63286;SDS011;49410;55.708;37.522;2022-11-20T00:55:53;12.80;;;5.25;;
63286;SDS011;49410;55.708;37.522;2022-11-20T00:58:23;15.93;;;5.70;;
63286;SDS011;49410;55.708;37.522;2022-11-20T01:00:49;15.88;;;5.72;;
63286;SDS011;49410;55.708;37.522;2022-11-20T01:03:15;14.15;;;5.78;;
63286;SDS011;49410;55.708;37.522;2022-11-20T01:05:42;13.13;;;5.63;;
63286;SDS011;49410;55.708;37.522;2022-11-20T01:08:07;18.38;;;7.10;;
63286;SDS011;49410;55.708;37.522;2022-11-20T01:10:33;12.93;;;5.65;;
63286;SDS011;49410;55.708;37.522;2022-11-20T01:12:58;16.55;;;5.63;;
63286;SDS011;49410;55.708;37.522;2022-11-20T01:15:42;12.85;;;4.95;;
63286;SDS011;49410;55.708;37.522;2022-11-20T01:18:08;14.30;;;5.97;;
63286;SDS011;49410;55.708;37.522;2022-11-20T01:20:34;13.32;;;5.75;;
63286;SDS011;49410;55.708;37.522;2022-11-20T01:23:01;9.90;;;4.50;;
63286;SDS011;49410;55.708;37.522;2022-11-20T01:25:27;9.93;;;4.72;;
63286;SDS011;49410;55.708;37.522;2022-11-20T01:27:52;14.90;;;6.15;;
63286;SDS011;49410;55.708;37.522;2022-11-20T01:30:18;12.32;;;5.38;;
63286;SDS011;49410;55.708;37.522;2022-11-20T01:35:09;13.43;;;4.80;;
63286;SDS011;49410;55.708;37.522;2022-11-20T01:37:35;11.05;;;4.70;;
63286;SDS011;49410;55.708;37.522;2022-11-20T01:40:00;14.23;;;5.85;;
63286;SDS011;49410;55.708;37.522;2022-11-20T01:51:24;12.65;;;5.45;;
63286;SDS011;49410;55.708;37.522;2022-11-20T01:53:51;10.63;;;4.60;;
63286;SDS011;49410;55.708;37.522;2022-11-20T01:56:19;12.73;;;5.53;;
63286;SDS011;49410;55.708;37.522;2022-11-20T01:58:49;14.43;;;6.18;;
63286;SDS011;49410;55.708;37.522;2022-11-20T02:01:19;13.02;;;5.70;;
63286;SDS011;49410;55.708;37.522;2022-11-20T02:03:45;12.52;;;5.35;;
63286;SDS011;49410;55.708;37.522;2022-11-20T02:06:23;12.52;;;5.60;;
63286;SDS011;49410;55.708;37.522;2022-11-20T02:08:51;12.57;;;5.63;;
63286;SDS011;49410;55.708;37.522;2022-11-20T02:11:17;13.57;;;5.40;;
63286;SDS011;49410;55.708;37.522;2022-11-20T02:13:43;11.93;;;5.38;;
63286;SDS011;49410;55.708;37.522;2022-11-20T02:16:14;16.38;;;5.53;;
63286;SDS011;49410;55.708;37.522;2022-11-20T02:18:45;11.50;;;4.93;;
63286;SDS011;49410;55.708;37.522;2022-11-20T02:26:38;12.90;;;4.70;;
63286;SDS011;49410;55.708;37.522;2022-11-20T02:29:07;13.95;;;5.25;;
63286;SDS011;49410;55.708;37.522;2022-11-20T02:31:35;13.43;;;6.00;;
63286;SDS011;49410;55.708;37.522;2022-11-20T02:34:05;12.68;;;5.63;;
63286;SDS011;49410;55.708;37.522;2022-11-20T02:36:30;11.93;;;4.50;;
63286;SDS011;49410;55.708;37.522;2022-11-20T02:38:57;12.18;;;5.05;;
63286;SDS011;49410;55.708;37.522;2022-11-20T02:41:30;10.65;;;4.38;;
63286;SDS011;49410;55.708;37.522;2022-11-20T02:43:59;12.93;;;4.85;;
63286;SDS011;49410;55.708;37.522;2022-11-20T02:46:25;12.93;;;5.57;;
63286;SDS011;49410;55.708;37.522;2022-11-20T02:48:50;13.55;;;4.65;;
63286;SDS011;49410;55.708;37.522;2022-11-20T02:51:16;11.95;;;5.53;;
63286;SDS011;49410;55.708;37.522;2022-11-20T02:56:07;9.40;;;4.40;;
63286;SDS011;49410;55.708;37.522;2022-11-20T02:58:32;12.80;;;5.15;;
63286;SDS011;49410;55.708;37.522;2022-11-20T03:00:58;12.00;;;5.57;;
63286;SDS011;49410;55.708;37.522;2022-11-20T03:03:23;13.52;;;6.32;;
63286;SDS011;49410;55.708;37.522;2022-11-20T03:05:49;12.05;;;4.57;;
63286;SDS011;49410;55.708;37.522;2022-11-20T03:10:40;10.48;;;4.50;;
63286;SDS011;49410;55.708;37.522;2022-11-20T03:15:30;10.25;;;5.25;;
63286;SDS011;49410;55.708;37.522;2022-11-20T03:17:56;11.48;;;4.78;;
63286;SDS011;49410;55.708;37.522;2022-11-20T03:22:47;10.60;;;4.20;;
63286;SDS011;49410;55.708;37.522;2022-11-20T03:27:38;9.48;;;4.00;;
63286;SDS011;49410;55.708;37.522;2022-11-20T03:32:30;10.10;;;4.15;;
63286;SDS011;49410;55.708;37.522;2022-11-20T03:34:56;11.77;;;4.35;;
63286;SDS011;49410;55.708;37.522;2022-11-20T03:37:22;11.70;;;5.72;;
63286;SDS011;49410;55.708;37.522;2022-11-20T03:39:47;9.77;;;4.90;;
63286;SDS011;49410;55.708;37.522;2022-11-20T03:42:13;10.23;;;4.47;;
63286;SDS011;49410;55.708;37.522;2022-11-20T03:45:14;15.30;;;5.00;;
63286;SDS011;49410;55.708;37.522;2022-11-20T03:47:41;11.98;;;4.72;;
63286;SDS011;49410;55.708;37.522;2022-11-20T03:50:08;13.20;;;5.25;;
63286;SDS011;49410;55.708;37.522;2022-11-20T03:52:34;14.18;;;5.18;;
63286;SDS011;49410;55.708;37.522;2022-11-20T03:55:00;15.85;;;5.50;;
63286;SDS011;49410;55.708;37.522;2022-11-20T03:57:26;11.40;;;4.55;;
63286;SDS011;49410;55.708;37.522;2022-11-20T03:59:51;11.68;;;5.13;;
63286;SDS011;49410;55.708;37.522;2022-11-20T04:02:17;16.58;;;5.53;;
63286;SDS011;49410;55.708;37.522;2022-11-20T04:04:42;13.85;;;5.22;;
63286;SDS011;49410;55.708;37.522;2022-11-20T04:07:08;15.70;;;6.20;;
63286;SDS011;49410;55.708;37.522;2022-11-20T04:09:33;14.23;;;5.63;;
63286;SDS011;49410;55.708;37.522;2022-11-20T04:11:59;12.82;;;5.50;;
63286;SDS011;49410;55.708;37.522;2022-11-20T04:14:24;12.00;;;5.50;;
63286;SDS011;49410;55.708;37.522;2022-11-20T04:16:50;14.25;;;5.70;;
63286;SDS011;49410;55.708;37.522;2022-11-20T04:19:15;13.52;;;5.20;;
63286;SDS011;49410;55.708;37.522;2022-11-20T04:21:42;11.23;;;5.07;;
63286;SDS011;49410;55.708;37.522;2022-11-20T04:24:08;12.32;;;5.22;;
63286;SDS011;49410;55.708;37.522;2022-11-20T04:26:35;14.80;;;6.13;;
63286;SDS011;49410;55.708;37.522;2022-11-20T04:29:02;15.38;;;5.85;;
63286;SDS011;49410;55.708;37.522;2022-11-20T04:31:28;13.18;;;5.55;;
63286;SDS011;49410;55.708;37.522;2022-11-20T04:33:58;12.23;;;5.40;;
63286;SDS011;49410;55.708;37.522;2022-11-20T04:36:25;12.98;;;5.35;;
63286;SDS011;49410;55.708;37.522;2022-11-20T04:38:56;13.02;;;5.38;;
63286;SDS011;49410;55.708;37.522;2022-11-20T04:41:23;15.30;;;5.40;;
63286;SDS011;49410;55.708;37.522;2022-11-20T04:43:54;13.88;;;5.20;;
63286;SDS011;49410;55.708;37.522;2022-11-20T04:46:31;14.68;;;6.20;;
63286;SDS011;49410;55.708;37.522;2022-11-20T04:49:01;13.38;;;5.53;;
63286;SDS011;49410;55.708;37.522;2022-11-20T04:51:27;15.02;;;6.25;;
63286;SDS011;49410;55.708;37.522;2022-11-20T04:53:53;16.05;;;5.80;;
63286;SDS011;49410;55.708;37.522;2022-11-20T04:56:18;14.68;;;5.75;;
63286;SDS011;49410;55.708;37.522;2022-11-20T04:58:44;14.48;;;5.70;;
63286;SDS011;49410;55.708;37.522;2022-11-20T05:01:12;11.18;;;5.35;;
63286;SDS011;49410;55.708;37.522;2022-11-20T05:03:39;12.63;;;5.07;;
63286;SDS011;49410;55.708;37.522;2022-11-20T05:06:06;15.13;;;6.30;;
63286;SDS011;49410;55.708;37.522;2022-11-20T05:08:32;13.25;;;5.90;;
63286;SDS011;49410;55.708;37.522;2022-11-20T05:11:05;14.00;;;5.65;;
63286;SDS011;49410;55.708;37.522;2022-11-20T05:13:33;12.60;;;4.78;;
63286;SDS011;49410;55.708;37.522;2022-11-20T05:16:02;16.83;;;6.53;;
63286;SDS011;49410;55.708;37.522;2022-11-20T05:18:29;13.98;;;5.38;;
63286;SDS011;49410;55.708;37.522;2022-11-20T05:20:55;11.68;;;5.50;;
63286;SDS011;49410;55.708;37.522;2022-11-20T05:23:21;13.63;;;5.85;;
63286;SDS011;49410;55.708;37.522;2022-11-20T05:25:47;14.00;;;6.05;;
63286;SDS011;49410;55.708;37.522;2022-11-20T05:28:12;12.68;;;5.78;;
63286;SDS011;49410;55.708;37.522;2022-11-20T05:30:39;14.13;;;5.70;;
63286;SDS011;49410;55.708;37.522;2022-11-20T05:33:04;12.05;;;5.35;;
63286;SDS011;49410;55.708;37.522;2022-11-20T05:35:30;16.90;;;6.75;;
63286;SDS011;49410;55.708;37.522;2022-11-20T05:37:55;14.88;;;6.35;;
63286;SDS011;49410;55.708;37.522;2022-11-20T05:40:20;13.15;;;6.63;;
63286;SDS011;49410;55.708;37.522;2022-11-20T05:42:46;14.68;;;5.47;;
63286;SDS011;49410;55.708;37.522;2022-11-20T05:45:12;17.20;;;6.25;;
63286;SDS011;49410;55.708;37.522;2022-11-20T05:50:02;14.80;;;5.97;;
63286;SDS011;49410;55.708;37.522;2022-11-20T05:52:29;12.85;;;5.18;;
63286;SDS011;49410;55.708;37.522;2022-11-20T05:54:55;12.27;;;6.28;;
63286;SDS011;49410;55.708;37.522;2022-11-20T05:57:20;18.33;;;6.07;;
63286;SDS011;49410;55.708;37.522;2022-11-20T06:02:11;13.70;;;5.43;;
63286;SDS011;49410;55.708;37.522;2022-11-20T06:04:37;12.40;;;6.20;;
63286;SDS011;49410;55.708;37.522;2022-11-20T06:07:04;17.48;;;6.70;;
63286;SDS011;49410;55.708;37.522;2022-11-20T06:09:30;14.32;;;5.63;;
63286;SDS011;49410;55.708;37.522;2022-11-20T06:11:55;16.42;;;6.68;;
63286;SDS011;49410;55.708;37.522;2022-11-20T06:14:21;14.45;;;6.55;;
63286;SDS011;49410;55.708;37.522;2022-11-20T06:16:46;18.52;;;7.13;;
63286;SDS011;49410;55.708;37.522;2022-11-20T06:19:12;17.98;;;7.53;;
63286;SDS011;49410;55.708;37.522;2022-11-20T06:21:37;12.73;;;6.28;;
63286;SDS011;49410;55.708;37.522;2022-11-20T06:24:03;17.88;;;7.53;;
63286;SDS011;49410;55.708;37.522;2022-11-20T06:26:29;14.68;;;7.03;;
63286;SDS011;49410;55.708;37.522;2022-11-20T06:28:55;16.98;;;6.20;;
63286;SDS011;49410;55.708;37.522;2022-11-20T06:31:22;16.73;;;7.75;;
63286;SDS011;49410;55.708;37.522;2022-11-20T06:33:48;14.68;;;6.65;;
63286;SDS011;49410;55.708;37.522;2022-11-20T06:36:15;14.07;;;6.32;;
63286;SDS011;49410;55.708;37.522;2022-11-20T06:38:42;13.75;;;5.53;;
63286;SDS011;49410;55.708;37.522;2022-11-20T06:41:12;17.17;;;6.60;;
63286;SDS011;49410;55.708;37.522;2022-11-20T06:43:40;15.50;;;6.03;;
63286;SDS011;49410;55.708;37.522;2022-11-20T06:46:05;18.23;;;6.45;;
63286;SDS011;49410;55.708;37.522;2022-11-20T06:48:31;15.25;;;7.30;;
63286;SDS011;49410;55.708;37.522;2022-11-20T06:50:57;14.80;;;6.65;;
63286;SDS011;49410;55.708;37.522;2022-11-20T06:53:23;16.30;;;6.22;;
63286;SDS011;49410;55.708;37.522;2022-11-20T06:55:49;17.92;;;7.15;;
63286;SDS011;49410;55.708;37.522;2022-11-20T06:58:15;17.38;;;7.07;;
63286;SDS011;49410;55.708;37.522;2022-11-20T07:00:42;14.63;;;6.88;;
63286;SDS011;49410;55.708;37.522;2022-11-20T07:03:08;21.23;;;7.00;;
63286;SDS011;49410;55.708;37.522;2022-11-20T07:05:35;19.95;;;6.38;;
63286;SDS011;49410;55.708;37.522;2022-11-20T07:08:02;15.88;;;6.10;;
63286;SDS011;49410;55.708;37.522;2022-11-20T07:10:28;16.58;;;6.63;;
63286;SDS011;49410;55.708;37.522;2022-11-20T07:12:53;18.60;;;8.50;;
63286;SDS011;49410;55.708;37.522;2022-11-20T07:15:20;18.13;;;7.82;;
63286;SDS011;49410;55.708;37.522;2022-11-20T07:17:47;20.83;;;8.60;;
63286;SDS011;49410;55.708;37.522;2022-11-20T07:20:13;17.02;;;8.13;;
63286;SDS011;49410;55.708;37.522;2022-11-20T07:22:40;17.08;;;7.20;;
63286;SDS011;49410;55.708;37.522;2022-11-20T07:25:06;19.33;;;8.02;;
63286;SDS011;49410;55.708;37.522;2022-11-20T07:27:32;18.35;;;7.32;;
63286;SDS011;49410;55.708;37.522;2022-11-20T07:29:58;19.40;;;8.43;;
63286;SDS011;49410;55.708;37.522;2022-11-20T07:32:23;20.42;;;8.43;;
63286;SDS011;49410;55.708;37.522;2022-11-20T07:34:49;26.60;;;7.40;;
63286;SDS011;49410;55.708;37.522;2022-11-20T07:37:15;17.33;;;7.50;;
63286;SDS011;49410;55.708;37.522;2022-11-20T07:39:41;17.45;;;7.95;;
63286;SDS011;49410;55.708;37.522;2022-11-20T07:42:07;20.52;;;7.93;;
63286;SDS011;49410;55.708;37.522;2022-11-20T07:44:33;22.05;;;8.48;;
63286;SDS011;49410;55.708;37.522;2022-11-20T07:46:59;16.52;;;7.43;;
63286;SDS011;49410;55.708;37.522;2022-11-20T07:49:25;19.75;;;8.30;;
63286;SDS011;49410;55.708;37.522;2022-11-20T07:51:51;24.17;;;8.07;;
63286;SDS011;49410;55.708;37.522;2022-11-20T07:54:18;22.10;;;8.75;;
63286;SDS011;49410;55.708;37.522;2022-11-20T07:56:45;19.77;;;7.75;;
63286;SDS011;49410;55.708;37.522;2022-11-20T07:59:11;17.80;;;6.55;;
63286;SDS011;49410;55.708;37.522;2022-11-20T08:01:37;17.58;;;7.78;;
63286;SDS011;49410;55.708;37.522;2022-11-20T08:04:03;24.77;;;7.90;;
63286;SDS011;49410;55.708;37.522;2022-11-20T08:06:28;16.95;;;8.43;;
63286;SDS011;49410;55.708;37.522;2022-11-20T08:08:54;17.27;;;7.28;;
63286;SDS011;49410;55.708;37.522;2022-11-20T08:11:19;22.05;;;8.98;;
63286;SDS011;49410;55.708;37.522;2022-11-20T08:14:04;18.33;;;7.93;;
63286;SDS011;49410;55.708;37.522;2022-11-20T08:16:42;23.65;;;8.40;;
63286;SDS011;49410;55.708;37.522;2022-11-20T08:19:12;23.88;;;9.00;;
63286;SDS011;49410;55.708;37.522;2022-11-20T08:21:42;20.15;;;8.18;;
63286;SDS011;49410;55.708;37.522;2022-11-20T08:24:08;21.50;;;8.75;;
63286;SDS011;49410;55.708;37.522;2022-11-20T08:26:35;18.85;;;8.18;;
63286;SDS011;49410;55.708;37.522;2022-11-20T08:29:02;20.90;;;7.82;;
63286;SDS011;49410;55.708;37.522;2022-11-20T08:31:28;22.77;;;8.75;;
63286;SDS011;49410;55.708;37.522;2022-11-20T08:33:55;19.40;;;7.93;;
63286;SDS011;49410;55.708;37.522;2022-11-20T08:36:21;24.50;;;8.73;;
63286;SDS011;49410;55.708;37.522;2022-11-20T08:38:50;25.58;;;8.88;;
63286;SDS011;49410;55.708;37.522;2022-11-20T08:41:18;23.05;;;9.60;;
63286;SDS011;49410;55.708;37.522;2022-11-20T08:43:51;21.50;;;8.60;;
63286;SDS011;49410;55.708;37.522;2022-11-20T08:46:21;21.23;;;8.52;;
63286;SDS011;49410;55.708;37.522;2022-11-20T08:48:48;23.73;;;10.20;;
63286;SDS011;49410;55.708;37.522;2022-11-20T08:51:13;22.35;;;9.52;;
63286;SDS011;49410;55.708;37.522;2022-11-20T08:53:39;26.63;;;10.43;;
63286;SDS011;49410;55.708;37.522;2022-11-20T08:56:05;20.90;;;9.15;;
63286;SDS011;49410;55.708;37.522;2022-11-20T08:58:31;23.85;;;9.13;;
63286;SDS011;49410;55.708;37.522;2022-11-20T09:00:56;21.58;;;8.57;;
63286;SDS011;49410;55.708;37.522;2022-11-20T09:03:22;22.95;;;9.65;;
63286;SDS011;49410;55.708;37.522;2022-11-20T09:05:47;25.92;;;8.98;;
63286;SDS011;49410;55.708;37.522;2022-11-20T09:08:13;19.95;;;8.98;;
63286;SDS011;49410;55.708;37.522;2022-11-20T09:10:39;24.63;;;9.27;;
63286;SDS011;49410;55.708;37.522;2022-11-20T09:13:07;19.35;;;7.80;;
63286;SDS011;49410;55.708;37.522;2022-11-20T09:15:33;31.25;;;10.05;;
63286;SDS011;49410;55.708;37.522;2022-11-20T09:18:02;27.65;;;9.93;;
63286;SDS011;49410;55.708;37.522;2022-11-20T09:20:29;26.75;;;8.65;;
63286;SDS011;49410;55.708;37.522;2022-11-20T09:22:55;22.25;;;9.27;;
63286;SDS011;49410;55.708;37.522;2022-11-20T09:25:22;21.55;;;9.18;;
63286;SDS011;49410;55.708;37.522;2022-11-20T09:27:54;27.13;;;10.82;;
63286;SDS011;49410;55.708;37.522;2022-11-20T09:32:45;26.08;;;8.98;;
63286;SDS011;49410;55.708;37.522;2022-11-20T09:35:11;25.13;;;10.07;;
63286;SDS011;49410;55.708;37.522;2022-11-20T09:37:36;31.63;;;10.38;;
63286;SDS011;49410;55.708;37.522;2022-11-20T09:40:02;23.92;;;9.82;;
63286;SDS011;49410;55.708;37.522;2022-11-20T09:45:36;27.27;;;10.13;;
63286;SDS011;49410;55.708;37.522;2022-11-20T09:56:20;27.88;;;9.77;;
63286;SDS011;49410;55.708;37.522;2022-11-20T09:58:52;30.58;;;10.43;;
63286;SDS011;49410;55.708;37.522;2022-11-20T10:01:21;27.95;;;9.85;;
63286;SDS011;49410;55.708;37.522;2022-11-20T10:06:26;26.35;;;10.05;;
63286;SDS011;49410;55.708;37.522;2022-11-20T10:11:33;25.10;;;8.93;;
63286;SDS011;49410;55.708;37.522;2022-11-20T10:22:35;25.70;;;10.30;;
63286;SDS011;49410;55.708;37.522;2022-11-20T10:25:22;25.42;;;9.85;;
63286;SDS011;49410;55.708;37.522;2022-11-20T10:28:12;26.60;;;10.15;;
63286;SDS011;49410;55.708;37.522;2022-11-20T10:30:47;24.00;;;9.55;;
63286;SDS011;49410;55.708;37.522;2022-11-20T10:33:23;24.77;;;9.65;;
63286;SDS011;49410;55.708;37.522;2022-11-20T10:38:44;30.55;;;10.75;;
63286;SDS011;49410;55.708;37.522;2022-11-20T10:41:16;28.90;;;10.52;;
63286;SDS011;49410;55.708;37.522;2022-11-20T10:44:02;27.75;;;10.32;;
63286;SDS011;49410;55.708;37.522;2022-11-20T10:46:41;26.85;;;9.68;;
63286;SDS011;49410;55.708;37.522;2022-11-20T10:49:16;25.33;;;10.98;;
63286;SDS011;49410;55.708;37.522;2022-11-20T11:00:06;19.38;;;7.95;;
63286;SDS011;49410;55.708;37.522;2022-11-20T11:02:47;24.80;;;9.82;;
63286;SDS011;49410;55.708;37.522;2022-11-20T11:08:14;22.40;;;7.88;;
63286;SDS011;49410;55.708;37.522;2022-11-20T11:10:56;19.95;;;7.65;;
63286;SDS011;49410;55.708;37.522;2022-11-20T11:13:27;23.65;;;7.75;;
63286;SDS011;49410;55.708;37.522;2022-11-20T11:15:54;18.05;;;7.63;;
63286;SDS011;49410;55.708;37.522;2022-11-20T11:18:30;21.92;;;6.93;;
63286;SDS011;49410;55.708;37.522;2022-11-20T11:20:59;17.10;;;6.93;;
63286;SDS011;49410;55.708;37.522;2022-11-20T11:26:18;19.92;;;7.40;;
63286;SDS011;49410;55.708;37.522;2022-11-20T11:28:55;14.88;;;7.03;;
63286;SDS011;49410;55.708;37.522;2022-11-20T11:34:08;19.65;;;6.28;;
63286;SDS011;49410;55.708;37.522;2022-11-20T11:36:37;15.73;;;6.40;;
63286;SDS011;49410;55.708;37.522;2022-11-20T11:39:04;16.50;;;7.15;;
63286;SDS011;49410;55.708;37.522;2022-11-20T11:41:38;15.27;;;6.28;;
63286;SDS011;49410;55.708;37.522;2022-11-20T11:44:15;18.35;;;7.22;;
63286;SDS011;49410;55.708;37.522;2022-11-20T11:47:03;15.50;;;6.63;;
63286;SDS011;49410;55.708;37.522;2022-11-20T11:49:33;18.48;;;7.35;;
63286;SDS011;49410;55.708;37.522;2022-11-20T11:52:08;17.77;;;7.97;;
63286;SDS011;49410;55.708;37.522;2022-11-20T11:57:23;20.98;;;7.75;;
63286;SDS011;49410;55.708;37.522;2022-11-20T12:00:08;18.42;;;7.28;;
63286;SDS011;49410;55.708;37.522;2022-11-20T12:02:49;16.02;;;6.63;;
63286;SDS011;49410;55.708;37.522;2022-11-20T12:05:32;20.30;;;7.45;;
63286;SDS011;49410;55.708;37.522;2022-11-20T12:08:05;14.20;;;6.35;;
63286;SDS011;49410;55.708;37.522;2022-11-20T12:10:57;18.25;;;7.20;;
63286;SDS011;49410;55.708;37.522;2022-11-20T12:16:30;16.30;;;6.72;;
63286;SDS011;49410;55.708;37.522;2022-11-20T12:19:01;18.35;;;8.10;;
63286;SDS011;49410;55.708;37.522;2022-11-20T12:30:11;16.75;;;7.18;;
63286;SDS011;49410;55.708;37.522;2022-11-20T12:35:32;16.58;;;7.05;;
63286;SDS011;49410;55.708;37.522;2022-11-20T12:43:31;15.13;;;6.18;;
63286;SDS011;49410;55.708;37.522;2022-11-20T12:46:29;16.90;;;7.20;;
63286;SDS011;49410;55.708;37.522;2022-11-20T13:07:50;15.45;;;6.72;;
63286;SDS011;49410;55.708;37.522;2022-11-20T13:10:31;18.70;;;6.95;;
63286;SDS011;49410;55.708;37.522;2022-11-20T13:13:00;16.83;;;6.78;;
63286;SDS011;49410;55.708;37.522;2022-11-20T13:18:15;19.15;;;6.43;;
63286;SDS011;49410;55.708;37.522;2022-11-20T13:20:43;14.52;;;6.53;;
63286;SDS011;49410;55.708;37.522;2022-11-20T13:23:10;16.67;;;6.22;;
63286;SDS011;49410;55.708;37.522;2022-11-20T13:25:36;13.60;;;6.47;;
63286;SDS011;49410;55.708;37.522;2022-11-20T13:28:04;15.98;;;7.15;;
63286;SDS011;49410;55.708;37.522;2022-11-20T13:30:36;16.95;;;7.15;;
63286;SDS011;49410;55.708;37.522;2022-11-20T13:33:35;15.82;;;7.03;;
63286;SDS011;49410;55.708;37.522;2022-11-20T13:36:05;15.52;;;7.07;;
63286;SDS011;49410;55.708;37.522;2022-11-20T13:38:48;14.77;;;6.80;;
63286;SDS011;49410;55.708;37.522;2022-11-20T13:41:25;15.65;;;6.22;;
63286;SDS011;49410;55.708;37.522;2022-11-20T13:44:39;18.55;;;7.97;;
63286;SDS011;49410;55.708;37.522;2022-11-20T13:46:55;18.02;;;6.75;;
63286;SDS011;49410;55.708;37.522;2022-11-20T13:55:05;18.83;;;6.63;;
63286;SDS011;49410;55.708;37.522;2022-11-20T14:00:16;16.70;;;6.72;;
63286;SDS011;49410;55.708;37.522;2022-11-20T14:02:44;18.17;;;7.05;;
63286;SDS011;49410;55.708;37.522;2022-11-20T14:05:25;19.08;;;7.60;;
63286;SDS011;49410;55.708;37.522;2022-11-20T14:07:51;15.80;;;7.78;;
63286;SDS011;49410;55.708;37.522;2022-11-20T14:10:20;17.80;;;6.82;;
63286;SDS011;49410;55.708;37.522;2022-11-20T14:12:51;16.70;;;7.03;;
63286;SDS011;49410;55.708;37.522;2022-11-20T14:15:56;17.42;;;7.18;;
63286;SDS011;49410;55.708;37.522;2022-11-20T14:18:42;16.85;;;7.55;;
63286;SDS011;49410;55.708;37.522;2022-11-20T14:21:00;17.17;;;7.38;;
63286;SDS011;49410;55.708;37.522;2022-11-20T14:23:30;17.65;;;7.18;;
63286;SDS011;49410;55.708;37.522;2022-11-20T14:25:55;18.80;;;7.93;;
63286;SDS011;49410;55.708;37.522;2022-11-20T14:28:30;20.02;;;8.32;;
63286;SDS011;49410;55.708;37.522;2022-11-20T14:30:59;15.63;;;7.22;;
63286;SDS011;49410;55.708;37.522;2022-11-20T14:33:25;18.60;;;7.38;;
63286;SDS011;49410;55.708;37.522;2022-11-20T14:35:52;19.27;;;7.85;;
63286;SDS011;49410;55.708;37.522;2022-11-20T14:38:21;20.38;;;8.50;;
63286;SDS011;49410;55.708;37.522;2022-11-20T14:40:50;17.88;;;7.07;;
63286;SDS011;49410;55.708;37.522;2022-11-20T14:46:37;18.40;;;7.88;;
63286;SDS011;49410;55.708;37.522;2022-11-20T14:49:03;17.08;;;7.15;;
63286;SDS011;49410;55.708;37.522;2022-11-20T14:54:08;19.90;;;8.38;;
63286;SDS011;49410;55.708;37.522;2022-11-20T14:56:39;21.42;;;7.30;;
63286;SDS011;49410;55.708;37.522;2022-11-20T14:59:04;16.90;;;7.38;;
63286;SDS011;49410;55.708;37.522;2022-11-20T15:01:31;19.30;;;8.05;;
63286;SDS011;49410;55.708;37.522;2022-11-20T15:04:09;17.02;;;6.63;;
63286;SDS011;49410;55.708;37.522;2022-11-20T15:06:36;18.40;;;8.10;;
63286;SDS011;49410;55.708;37.522;2022-11-20T15:09:03;18.92;;;7.20;;
63286;SDS011;49410;55.708;37.522;2022-11-20T15:11:34;18.23;;;7.25;;
63286;SDS011;49410;55.708;37.522;2022-11-20T15:14:02;17.45;;;7.40;;
63286;SDS011;49410;55.708;37.522;2022-11-20T15:16:29;19.77;;;7.63;;
63286;SDS011;49410;55.708;37.522;2022-11-20T15:18:55;19.25;;;8.10;;
63286;SDS011;49410;55.708;37.522;2022-11-20T15:21:21;19.05;;;8.40;;
63286;SDS011;49410;55.708;37.522;2022-11-20T15:23:47;21.02;;;8.30;;
63286;SDS011;49410;55.708;37.522;2022-11-20T15:26:14;19.05;;;8.30;;
63286;SDS011;49410;55.708;37.522;2022-11-20T15:31:13;18.45;;;6.75;;
63286;SDS011;49410;55.708;37.522;2022-11-20T15:33:41;17.00;;;6.13;;
63286;SDS011;49410;55.708;37.522;2022-11-20T15:36:07;17.10;;;6.72;;
63286;SDS011;49410;55.708;37.522;2022-11-20T15:38:33;17.38;;;7.93;;
63286;SDS011;49410;55.708;37.522;2022-11-20T15:40:59;17.85;;;7.82;;
63286;SDS011;49410;55.708;37.522;2022-11-20T15:43:24;17.17;;;8.10;;
63286;SDS011;49410;55.708;37.522;2022-11-20T15:45:57;17.10;;;6.43;;
63286;SDS011;49410;55.708;37.522;2022-11-20T15:51:04;26.35;;;8.32;;
63286;SDS011;49410;55.708;37.522;2022-11-20T15:53:43;15.70;;;6.93;;
63286;SDS011;49410;55.708;37.522;2022-11-20T15:56:12;20.05;;;8.50;;
63286;SDS011;49410;55.708;37.522;2022-11-20T15:58:38;16.60;;;7.03;;
63286;SDS011;49410;55.708;37.522;2022-11-20T16:01:04;15.63;;;7.50;;
63286;SDS011;49410;55.708;37.522;2022-11-20T16:03:30;18.75;;;7.22;;
63286;SDS011;49410;55.708;37.522;2022-11-20T16:05:55;17.60;;;7.72;;
63286;SDS011;49410;55.708;37.522;2022-11-20T16:08:21;19.25;;;7.68;;
63286;SDS011;49410;55.708;37.522;2022-11-20T16:10:46;20.55;;;8.65;;
63286;SDS011;49410;55.708;37.522;2022-11-20T16:13:13;17.10;;;7.32;;
63286;SDS011;49410;55.708;37.522;2022-11-20T16:15:59;19.58;;;7.32;;
63286;SDS011;49410;55.708;37.522;2022-11-20T16:18:30;16.38;;;7.30;;
63286;SDS011;49410;55.708;37.522;2022-11-20T16:20:56;18.70;;;7.80;;
63286;SDS011;49410;55.708;37.522;2022-11-20T16:23:22;21.58;;;9.45;;
63286;SDS011;49410;55.708;37.522;2022-11-20T16:25:48;17.25;;;7.82;;
63286;SDS011;49410;55.708;37.522;2022-11-20T16:28:14;20.30;;;8.75;;
63286;SDS011;49410;55.708;37.522;2022-11-20T16:30:40;19.77;;;7.40;;
63286;SDS011;49410;55.708;37.522;2022-11-20T16:33:12;18.45;;;8.48;;
63286;SDS011;49410;55.708;37.522;2022-11-20T16:35:39;17.55;;;7.70;;
63286;SDS011;49410;55.708;37.522;2022-11-20T16:38:05;16.63;;;7.00;;
63286;SDS011;49410;55.708;37.522;2022-11-20T16:40:31;16.75;;;7.18;;
63286;SDS011;49410;55.708;37.522;2022-11-20T16:42:57;23.77;;;8.38;;
63286;SDS011;49410;55.708;37.522;2022-11-20T16:45:22;19.35;;;7.15;;
63286;SDS011;49410;55.708;37.522;2022-11-20T16:47:48;20.73;;;8.07;;
63286;SDS011;49410;55.708;37.522;2022-11-20T16:50:14;15.68;;;7.25;;
63286;SDS011;49410;55.708;37.522;2022-11-20T16:52:40;20.25;;;8.20;;
63286;SDS011;49410;55.708;37.522;2022-11-20T16:55:05;16.92;;;7.88;;
63286;SDS011;49410;55.708;37.522;2022-11-20T16:59:58;17.88;;;7.05;;